createdAt,value
2018-07-09T00:02:13.704Z,54.70
2018-07-09T00:04:45.444Z,55.00
2018-07-09T00:07:17.584Z,54.90
2018-07-09T00:09:50.124Z,54.70
2018-07-09T00:12:22.544Z,54.70
2018-07-09T00:14:54.264Z,54.60
2018-07-09T00:17:25.885Z,54.60
2018-07-09T00:19:57.544Z,54.70
2018-07-09T00:22:28.957Z,54.70
2018-07-09T00:25:00.637Z,55.00
2018-07-09T00:27:32.954Z,55.10
2018-07-09T00:30:04.354Z,55.30
2018-07-09T00:32:36.214Z,55.60
2018-07-09T00:37:40.194Z,55.80
2018-07-09T00:40:11.955Z,56.20
2018-07-09T00:42:44.194Z,56.60
2018-07-09T00:45:16.214Z,56.80
2018-07-09T00:47:48.414Z,56.20
2018-07-09T00:50:20.994Z,55.90
2018-07-09T00:52:53.734Z,56.60
2018-07-09T00:55:25.454Z,56.70
2018-07-09T00:57:58.093Z,56.60
2018-07-09T01:00:29.594Z,56.70
2018-07-09T01:03:02.096Z,56.80
2018-07-09T01:05:34.833Z,56.80
2018-07-09T01:08:06.874Z,57.00
2018-07-09T01:10:46.134Z,57.20
2018-07-09T01:13:18.174Z,57.50
2018-07-09T01:15:49.734Z,57.60
2018-07-09T01:18:22.074Z,57.50
2018-07-09T01:20:54.374Z,57.60
2018-07-09T01:23:26.774Z,57.50
2018-07-09T01:25:59.414Z,57.60
2018-07-09T01:28:32.774Z,58.00
2018-07-09T01:31:04.937Z,58.30
2018-07-09T01:33:36.614Z,58.50
2018-07-09T01:36:08.716Z,58.60
2018-07-09T01:38:40.354Z,58.40
2018-07-09T01:41:12.954Z,58.00
2018-07-09T01:43:44.874Z,58.00
2018-07-09T01:46:15.954Z,58.00
2018-07-09T01:48:47.834Z,58.20
2018-07-09T01:51:19.434Z,58.40
2018-07-09T01:53:51.214Z,58.70
2018-07-09T01:56:23.154Z,59.20
2018-07-09T01:58:56.154Z,59.80
2018-07-09T02:03:59.497Z,59.90
2018-07-09T02:06:31.533Z,59.90
2018-07-09T02:09:03.480Z,60.20
2018-07-09T02:11:35.754Z,60.30
2018-07-09T02:14:08.014Z,61.10
2018-07-09T02:16:39.394Z,60.60
2018-07-09T02:19:12.134Z,60.90
2018-07-09T02:21:43.894Z,61.00
2018-07-09T02:24:16.054Z,61.10
2018-07-09T02:26:48.594Z,61.00
2018-07-09T02:29:20.154Z,61.10
2018-07-09T02:31:53.017Z,61.40
2018-07-09T02:34:24.500Z,61.50
2018-07-09T02:36:56.596Z,61.50
2018-07-09T02:39:28.694Z,61.40
2018-07-09T02:42:00.575Z,61.80
2018-07-09T02:44:32.494Z,61.50
2018-07-09T02:47:04.335Z,61.70
2018-07-09T02:49:37.440Z,62.00
2018-07-09T02:52:09.075Z,62.20
2018-07-09T02:54:41.055Z,62.60
2018-07-09T02:57:13.475Z,62.80
2018-07-09T02:59:46.154Z,63.20
2018-07-09T03:02:19.135Z,63.30
2018-07-09T03:04:51.782Z,63.40
2018-07-09T03:07:23.635Z,63.50
2018-07-09T03:09:56.275Z,63.70
2018-07-09T03:12:28.515Z,63.90
2018-07-09T03:15:00.635Z,63.90
2018-07-09T03:17:32.715Z,64.10
2018-07-09T03:20:04.676Z,64.10
2018-07-09T03:22:37.275Z,64.20
2018-07-09T03:25:09.495Z,64.40
2018-07-09T03:27:41.035Z,64.90
2018-07-09T03:30:14.058Z,65.10
2018-07-09T03:32:45.335Z,65.30
2018-07-09T03:35:17.878Z,65.50
2018-07-09T03:37:50.075Z,65.40
2018-07-09T03:40:21.818Z,65.30
2018-07-09T03:42:53.855Z,65.20
2018-07-09T03:45:25.814Z,65.40
2018-07-09T03:47:57.703Z,65.50
2018-07-09T03:50:29.275Z,65.80
2018-07-09T03:53:01.635Z,65.90
2018-07-09T03:55:33.435Z,66.20
2018-07-09T03:58:05.755Z,66.40
2018-07-09T04:00:37.595Z,66.40
2018-07-09T04:03:09.975Z,66.40
2018-07-09T04:05:42.214Z,66.30
2018-07-09T04:08:13.914Z,66.30
2018-07-09T04:10:46.094Z,66.20
2018-07-09T04:13:18.075Z,66.20
2018-07-09T04:15:50.655Z,66.60
2018-07-09T04:18:25.435Z,66.60
2018-07-09T04:20:58.101Z,66.70
2018-07-09T04:23:30.481Z,67.20
2018-07-09T04:26:01.955Z,67.20
2018-07-09T04:28:34.115Z,67.30
2018-07-09T04:31:06.095Z,67.40
2018-07-09T04:33:38.275Z,67.60
2018-07-09T04:36:10.118Z,67.30
2018-07-09T04:38:42.136Z,67.30
2018-07-09T04:41:13.696Z,67.40
2018-07-09T04:43:46.075Z,67.30
2018-07-09T04:46:15.843Z,67.40
2018-07-09T04:48:47.695Z,67.50
2018-07-09T04:51:20.234Z,67.40
2018-07-09T04:53:52.935Z,68.00
2018-07-09T04:56:24.383Z,67.50
2018-07-09T04:58:56.615Z,67.80
2018-07-09T05:01:27.838Z,67.90
2018-07-09T05:04:00.435Z,67.90
2018-07-09T05:06:32.835Z,68.00
2018-07-09T05:09:05.757Z,68.40
2018-07-09T05:11:38.015Z,68.30
2018-07-09T05:14:10.075Z,68.30
2018-07-09T05:16:42.175Z,68.20
2018-07-09T05:19:14.475Z,68.30
2018-07-09T05:21:46.715Z,68.30
2018-07-09T05:24:19.156Z,68.40
2018-07-09T05:26:51.734Z,68.30
2018-07-09T05:29:23.535Z,68.30
2018-07-09T05:31:55.875Z,68.30
2018-07-09T05:34:28.115Z,68.20
2018-07-09T05:37:00.036Z,68.10
2018-07-09T05:39:33.074Z,68.30
2018-07-09T05:42:06.064Z,68.20
2018-07-09T05:44:38.294Z,68.00
2018-07-09T05:47:10.035Z,67.70
2018-07-09T05:49:42.015Z,67.70
2018-07-09T05:52:14.235Z,67.40
2018-07-09T05:54:47.454Z,67.30
2018-07-09T05:57:19.235Z,67.00
2018-07-09T05:59:51.854Z,66.90
2018-07-09T06:02:23.874Z,66.40
2018-07-09T06:04:55.635Z,66.10
2018-07-09T06:07:28.015Z,65.70
2018-07-09T06:10:00.236Z,65.50
2018-07-09T06:12:32.494Z,65.50
2018-07-09T06:15:04.977Z,65.70
2018-07-09T06:17:36.436Z,65.90
2018-07-09T06:20:09.594Z,65.40
2018-07-09T06:22:41.675Z,64.80
2018-07-09T06:25:13.295Z,64.60
2018-07-09T06:27:46.294Z,64.90
2018-07-09T06:30:18.235Z,64.80
2018-07-09T06:32:50.535Z,63.90
2018-07-09T06:35:23.795Z,63.50
2018-07-09T06:37:55.995Z,62.90
2018-07-09T06:40:28.254Z,62.10
2018-07-09T06:43:00.315Z,62.40
2018-07-09T06:45:32.616Z,63.10
2018-07-09T06:48:04.374Z,62.20
2018-07-09T06:50:36.536Z,60.90
2018-07-09T06:53:08.055Z,60.30
2018-07-09T06:55:39.682Z,59.00
2018-07-09T06:58:12.115Z,59.70
2018-07-09T07:00:44.457Z,60.30
2018-07-09T07:03:16.194Z,60.30
2018-07-09T07:05:47.634Z,60.80
2018-07-09T07:08:19.997Z,59.30
2018-07-09T07:10:52.537Z,59.60
2018-07-09T07:13:25.020Z,59.10
2018-07-09T07:15:57.615Z,59.50
2018-07-09T07:18:29.665Z,59.30
2018-07-09T07:21:01.683Z,60.00
2018-07-09T07:23:33.826Z,60.20
2018-07-09T07:26:06.244Z,60.10
2018-07-09T07:28:38.044Z,61.30
2018-07-09T07:31:09.584Z,60.40
2018-07-09T07:33:42.064Z,60.20
2018-07-09T07:36:13.764Z,59.70
2018-07-09T07:38:45.764Z,59.00
2018-07-09T07:41:16.968Z,59.40
2018-07-09T07:43:48.543Z,59.50
2018-07-09T07:46:20.344Z,59.30
2018-07-09T07:48:52.388Z,59.40
2018-07-09T07:51:24.505Z,59.40
2018-07-09T07:53:56.644Z,59.00
2018-07-09T07:56:27.823Z,58.80
2018-07-09T07:58:59.980Z,58.80
2018-07-09T08:01:32.545Z,59.20
2018-07-09T08:04:04.121Z,58.80
2018-07-09T08:06:36.360Z,59.00
2018-07-09T08:09:08.139Z,57.70
2018-07-09T08:11:48.552Z,57.80
2018-07-09T08:14:12.319Z,57.10
2018-07-09T08:16:44.218Z,56.90
2018-07-09T08:19:16.500Z,56.80
2018-07-09T08:21:48.218Z,55.80
2018-07-09T08:24:19.518Z,56.20
2018-07-09T08:26:51.848Z,56.20
2018-07-09T08:29:24.688Z,56.60
2018-07-09T08:31:56.748Z,56.70
2018-07-09T08:34:28.929Z,56.20
2018-07-09T08:37:01.219Z,55.40
2018-07-09T08:39:33.020Z,55.80
2018-07-09T08:42:04.726Z,56.20
2018-07-09T08:44:38.040Z,56.40
2018-07-09T08:47:09.999Z,56.40
2018-07-09T08:49:43.442Z,56.60
2018-07-09T08:52:15.299Z,56.50
2018-07-09T08:54:47.399Z,56.90
2018-07-09T08:57:19.866Z,56.70
2018-07-09T08:59:51.640Z,56.40
2018-07-09T09:02:24.099Z,56.80
2018-07-09T09:04:55.519Z,56.60
2018-07-09T09:07:27.520Z,56.50
2018-07-09T09:09:59.117Z,57.40
2018-07-09T09:12:30.773Z,56.90
2018-07-09T09:15:02.879Z,56.50
2018-07-09T09:17:34.679Z,56.60
2018-07-09T09:20:06.302Z,56.70
2018-07-09T09:22:38.899Z,57.20
2018-07-09T09:25:11.120Z,56.70
2018-07-09T09:27:43.860Z,56.30
2018-07-09T09:30:16.020Z,56.70
2018-07-09T09:32:47.721Z,57.20
2018-07-09T09:35:19.639Z,57.20
2018-07-09T09:37:52.000Z,57.10
2018-07-09T09:40:23.839Z,56.60
2018-07-09T09:42:55.200Z,56.20
2018-07-09T09:45:27.900Z,56.40
2018-07-09T09:47:59.500Z,55.70
2018-07-09T09:50:31.364Z,55.40
2018-07-09T09:53:03.505Z,55.00
2018-07-09T09:55:35.464Z,55.00
2018-07-09T09:58:07.565Z,55.60
2018-07-09T10:00:43.826Z,54.40
2018-07-09T10:03:15.605Z,54.20
2018-07-09T10:05:48.205Z,54.00
2018-07-09T10:08:20.266Z,53.40
2018-07-09T10:10:52.265Z,53.30
2018-07-09T10:13:24.204Z,52.90
2018-07-09T10:15:56.127Z,52.10
2018-07-09T10:18:28.125Z,51.80
2018-07-09T10:21:00.744Z,51.90
2018-07-09T10:23:32.473Z,52.10
2018-07-09T10:26:05.004Z,52.00
2018-07-09T10:28:37.367Z,51.70
2018-07-09T10:31:09.525Z,51.10
2018-07-09T10:33:41.704Z,51.40
2018-07-09T10:36:12.964Z,51.60
2018-07-09T10:38:43.933Z,51.40
2018-07-09T10:41:16.298Z,51.30
2018-07-09T10:43:47.977Z,51.20
2018-07-09T10:46:20.016Z,51.00
2018-07-09T10:48:51.145Z,50.30
2018-07-09T10:51:23.364Z,50.40
2018-07-09T10:53:55.234Z,49.90
2018-07-09T10:56:27.674Z,50.40
2018-07-09T10:58:59.333Z,50.10
2018-07-09T11:01:31.694Z,51.10
2018-07-09T11:04:03.975Z,51.20
2018-07-09T11:06:35.933Z,51.20
2018-07-09T11:09:09.214Z,50.80
2018-07-09T11:11:41.456Z,50.80
2018-07-09T11:14:12.715Z,50.50
2018-07-09T11:16:44.573Z,50.20
2018-07-09T11:21:48.215Z,50.20
2018-07-09T11:24:20.314Z,50.50
2018-07-09T11:26:52.313Z,49.90
2018-07-09T11:29:24.715Z,49.60
2018-07-09T11:31:57.233Z,49.20
2018-07-09T11:34:29.274Z,49.80
2018-07-09T11:37:01.914Z,50.10
2018-07-09T11:39:33.173Z,49.80
2018-07-09T11:42:05.620Z,49.90
2018-07-09T11:44:37.265Z,49.30
2018-07-09T11:47:09.595Z,48.70
2018-07-09T11:49:41.596Z,49.10
2018-07-09T11:52:14.027Z,48.90
2018-07-09T11:54:46.115Z,47.40
2018-07-09T11:57:18.477Z,48.40
2018-07-09T11:59:50.114Z,47.10
2018-07-09T12:02:22.473Z,44.90
2018-07-09T12:04:54.242Z,44.50
2018-07-09T12:07:27.116Z,46.30
2018-07-09T12:09:58.894Z,46.30
2018-07-09T12:12:31.020Z,44.90
2018-07-09T12:15:02.520Z,43.50
2018-07-09T12:17:35.595Z,43.70
2018-07-09T12:20:07.453Z,44.40
2018-07-09T12:22:39.874Z,45.20
2018-07-09T12:25:12.374Z,44.30
2018-07-09T12:27:44.474Z,43.90
2018-07-09T12:30:16.514Z,43.50
2018-07-09T12:32:48.797Z,42.40
2018-07-09T12:35:21.153Z,41.90
2018-07-09T12:53:07.738Z,38.50
2018-07-09T12:55:40.327Z,39.20
2018-07-09T12:58:13.298Z,38.60
2018-07-09T13:00:45.278Z,38.20
2018-07-09T13:03:17.258Z,37.80
2018-07-09T13:05:49.679Z,36.30
2018-07-09T13:08:21.778Z,36.70
2018-07-09T13:10:53.419Z,36.90
2018-07-09T13:13:25.658Z,36.00
2018-07-09T13:15:57.738Z,35.80
2018-07-09T13:18:29.289Z,34.90
2018-07-09T13:21:01.469Z,36.10
2018-07-09T13:23:33.487Z,36.30
2018-07-09T13:26:05.685Z,35.80
2018-07-09T13:28:37.274Z,34.40
2018-07-09T13:31:08.734Z,33.70
2018-07-09T13:33:40.288Z,32.50
2018-07-09T13:36:12.367Z,33.40
2018-07-09T13:38:44.207Z,32.90
2018-07-09T13:41:16.547Z,32.40
2018-07-09T13:43:48.567Z,32.90
2018-07-09T13:46:20.948Z,33.10
2018-07-09T13:48:52.527Z,33.00
2018-07-09T13:51:25.268Z,31.30
2018-07-09T13:53:57.457Z,31.10
2018-07-09T13:56:29.899Z,30.80
2018-07-09T13:59:02.838Z,29.10
2018-07-09T14:01:34.397Z,30.30
2018-07-09T14:04:07.638Z,32.20
2018-07-09T14:06:40.156Z,30.00
2018-07-09T14:09:12.417Z,30.30
2018-07-09T14:11:44.618Z,31.60
2018-07-09T14:14:16.537Z,31.10
2018-07-09T14:16:49.039Z,30.70
2018-07-09T14:19:31.297Z,30.70
2018-07-09T14:22:03.657Z,29.60
2018-07-09T14:24:35.357Z,30.30
2018-07-09T14:27:07.177Z,30.50
2018-07-09T14:29:39.131Z,30.50
2018-07-09T14:32:11.436Z,30.10
2018-07-09T14:34:43.419Z,30.60
2018-07-09T14:37:15.336Z,30.00
2018-07-09T14:39:48.077Z,29.50
2018-07-09T14:42:19.276Z,29.90
2018-07-09T14:44:52.037Z,30.00
2018-07-09T14:47:23.996Z,31.20
2018-07-09T14:49:56.620Z,31.20
2018-07-09T14:52:29.256Z,31.10
2018-07-09T14:55:02.518Z,31.30
2018-07-09T14:57:34.416Z,31.00
2018-07-09T15:00:07.516Z,30.50
2018-07-09T15:02:39.480Z,30.30
2018-07-09T15:05:11.496Z,30.20
2018-07-09T15:07:43.175Z,29.90
2018-07-09T15:10:14.556Z,29.80
2018-07-09T15:12:45.664Z,30.00
2018-07-09T15:15:18.224Z,30.20
2018-07-09T15:17:50.084Z,30.70
2018-07-09T15:20:22.343Z,31.60
2018-07-09T15:22:54.543Z,32.60
2018-07-09T15:25:26.524Z,33.60
2018-07-09T15:27:59.023Z,33.10
2018-07-09T15:30:30.744Z,32.90
2018-07-09T15:33:02.784Z,33.40
2018-07-09T15:35:35.163Z,32.10
2018-07-09T15:38:07.363Z,32.50
2018-07-09T15:40:37.744Z,32.00
2018-07-09T15:43:09.724Z,32.00
2018-07-09T15:45:41.578Z,32.40
2018-07-09T15:48:13.565Z,32.30
2018-07-09T15:50:45.624Z,32.60
2018-07-09T15:53:17.938Z,32.50
2018-07-09T15:55:49.903Z,33.30
2018-07-09T15:58:22.583Z,35.10
2018-07-09T16:00:54.565Z,36.40
2018-07-09T16:03:26.766Z,38.30
2018-07-09T16:05:58.863Z,38.20
2018-07-09T16:08:30.703Z,40.00
2018-07-09T16:11:00.631Z,39.80
2018-07-09T16:13:31.984Z,38.30
2018-07-09T16:16:03.584Z,37.00
2018-07-09T16:18:35.026Z,37.20
2018-07-09T16:21:07.663Z,36.60
2018-07-09T16:23:39.067Z,36.80
2018-07-09T16:26:11.655Z,37.00
2018-07-09T16:28:44.080Z,37.10
2018-07-09T16:31:16.125Z,37.50
2018-07-09T16:33:47.505Z,36.70
2018-07-09T16:36:18.838Z,36.00
2018-07-09T16:38:51.303Z,34.90
2018-07-09T16:41:23.544Z,34.30
2018-07-09T16:43:56.265Z,35.00
2018-07-09T16:46:28.843Z,36.90
2018-07-09T16:49:00.342Z,37.10
2018-07-09T16:51:32.124Z,38.40
2018-07-09T16:54:03.985Z,38.70
2018-07-09T16:56:36.283Z,38.80
2018-07-09T16:59:07.985Z,39.40
2018-07-09T17:01:40.123Z,39.50
2018-07-09T17:04:11.883Z,40.00
2018-07-09T17:06:44.166Z,40.30
2018-07-09T17:09:15.747Z,41.00
2018-07-09T17:11:47.985Z,41.40
2018-07-09T17:14:20.448Z,41.50
2018-07-09T17:16:52.384Z,41.00
2018-07-09T17:19:23.904Z,40.40
2018-07-09T17:21:55.864Z,40.30
2018-07-09T17:24:28.203Z,41.00
2018-07-09T17:27:00.197Z,40.90
2018-07-09T17:29:32.403Z,40.50
2018-07-09T17:32:05.222Z,39.90
2018-07-09T17:34:37.124Z,39.80
2018-07-09T17:37:09.645Z,39.90
2018-07-09T17:39:40.685Z,39.50
2018-07-09T17:42:12.786Z,39.20
2018-07-09T17:44:45.484Z,37.90
2018-07-09T17:47:16.944Z,38.60
2018-07-09T17:49:49.940Z,39.10
2018-07-09T17:52:21.963Z,39.80
2018-07-09T17:54:53.903Z,40.20
2018-07-09T17:57:26.664Z,39.90
2018-07-09T17:59:58.710Z,39.80
2018-07-09T18:02:31.024Z,40.20
2018-07-09T18:05:03.304Z,40.70
2018-07-09T18:07:35.263Z,41.20
2018-07-09T18:10:08.192Z,41.30
2018-07-09T18:12:40.085Z,41.90
2018-07-09T18:15:12.504Z,41.40
2018-07-09T18:17:44.684Z,41.50
2018-07-09T18:20:16.763Z,41.90
2018-07-09T18:22:49.043Z,42.30
2018-07-09T18:25:21.132Z,42.40
2018-07-09T18:27:53.483Z,42.40
2018-07-09T18:30:25.324Z,41.70
2018-07-09T18:32:57.031Z,41.20
2018-07-09T18:35:29.122Z,40.30
2018-07-09T18:38:01.424Z,39.30
2018-07-09T18:40:34.384Z,37.60
2018-07-09T18:43:06.844Z,38.50
2018-07-09T18:45:38.668Z,38.20
2018-07-09T18:48:10.923Z,42.20
2018-07-09T18:50:43.024Z,43.60
2018-07-09T18:53:14.611Z,43.60
2018-07-09T18:55:47.363Z,43.90
2018-07-09T18:58:19.679Z,43.90
2018-07-09T19:00:52.823Z,44.10
2018-07-09T19:03:24.629Z,44.20
2018-07-09T19:07:07.344Z,44.10
2018-07-09T19:09:39.743Z,44.40
2018-07-09T19:12:11.823Z,45.10
2018-07-09T19:14:45.745Z,45.20
2018-07-09T19:17:57.803Z,45.40
2018-07-09T19:20:39.684Z,45.30
2018-07-09T19:23:09.763Z,45.30
2018-07-09T19:25:39.944Z,45.30
2018-07-09T19:28:08.973Z,45.30
2018-07-09T19:30:38.683Z,45.10
2018-07-09T19:33:07.966Z,45.30
2018-07-09T19:38:07.223Z,45.00
2018-07-09T19:40:36.203Z,45.00
2018-07-09T19:43:05.303Z,45.20
2018-07-09T19:45:36.347Z,44.90
2018-07-09T19:48:05.804Z,45.10
2018-07-09T19:50:34.904Z,45.20
2018-07-09T19:53:04.024Z,45.20
2018-07-09T19:55:33.764Z,45.30
2018-07-09T19:58:03.603Z,45.10
2018-07-09T20:00:32.650Z,45.20
2018-07-09T20:03:01.943Z,45.40
2018-07-09T20:05:31.546Z,45.50
2018-07-09T20:08:00.403Z,45.80
2018-07-09T20:10:33.864Z,45.70
2018-07-09T20:13:05.545Z,45.90
2018-07-09T20:15:39.164Z,46.40
2018-07-09T20:18:08.083Z,47.00
2018-07-09T20:20:37.508Z,46.80
2018-07-09T20:23:07.611Z,46.90
2018-07-09T20:25:37.024Z,47.00
2018-07-09T20:28:06.744Z,46.80
2018-07-09T20:30:35.624Z,47.00
2018-07-09T20:33:05.386Z,47.10
2018-07-09T20:35:34.684Z,47.30
2018-07-09T20:38:04.844Z,47.20
2018-07-09T20:40:33.884Z,47.10
2018-07-09T20:43:03.064Z,47.40
2018-07-09T20:45:32.543Z,47.30
2018-07-09T20:48:02.044Z,47.50
2018-07-09T20:50:31.405Z,47.60
2018-07-09T20:53:00.809Z,47.80
2018-07-09T20:55:30.765Z,48.10
2018-07-09T20:58:00.846Z,48.20
2018-07-09T21:00:30.304Z,47.80
2018-07-09T21:02:59.163Z,47.80
2018-07-09T21:05:28.845Z,48.10
2018-07-09T21:07:58.363Z,48.50
2018-07-09T21:10:28.304Z,49.10
2018-07-09T21:12:58.483Z,49.50
2018-07-09T21:15:29.869Z,48.90
2018-07-09T21:17:59.440Z,49.00
2018-07-09T21:20:28.680Z,49.10
2018-07-09T21:22:57.880Z,49.20
2018-07-09T21:25:27.461Z,49.30
2018-07-09T21:27:57.222Z,49.60
2018-07-09T21:30:26.461Z,50.20
2018-07-09T21:32:55.723Z,51.30
2018-07-09T21:35:25.223Z,50.70
2018-07-09T21:37:53.997Z,51.00
2018-07-09T21:40:23.462Z,50.90
2018-07-09T21:42:53.104Z,50.70
2018-07-09T21:45:22.204Z,50.60
2018-07-09T21:47:59.216Z,50.90
2018-07-09T21:50:20.922Z,51.90
2018-07-09T21:52:50.345Z,51.60
2018-07-09T21:55:19.483Z,51.50
2018-07-09T21:57:48.822Z,51.60
2018-07-09T22:00:17.963Z,51.90
2018-07-09T22:02:47.043Z,51.80
2018-07-09T22:05:16.802Z,51.80
2018-07-09T22:07:46.243Z,51.60
2018-07-09T22:10:15.686Z,51.50
2018-07-09T22:12:44.965Z,51.40
2018-07-09T22:15:13.923Z,51.30
2018-07-09T22:17:43.484Z,51.40
2018-07-09T22:20:13.522Z,51.50
2018-07-09T22:22:43.242Z,51.50
2018-07-09T22:25:13.007Z,51.50
2018-07-09T22:27:42.362Z,51.70
2018-07-09T22:30:11.782Z,51.80
2018-07-09T22:32:43.563Z,52.00
2018-07-09T22:35:15.922Z,52.20
2018-07-09T22:37:47.723Z,51.90
2018-07-09T22:40:20.345Z,52.20
2018-07-09T22:42:53.102Z,52.20
2018-07-09T22:45:24.822Z,52.00
2018-07-09T22:47:57.122Z,52.00
2018-07-09T22:50:29.023Z,52.20
2018-07-09T22:53:01.163Z,52.20
2018-07-09T22:55:43.422Z,52.40
2018-07-09T22:58:16.003Z,52.60
2018-07-09T23:00:47.823Z,52.70
2018-07-09T23:03:20.722Z,53.20
2018-07-09T23:05:52.463Z,53.10
2018-07-09T23:13:23.722Z,53.90
2018-07-09T23:18:08.687Z,53.00
2018-07-09T23:22:57.242Z,54.00
2018-07-09T23:25:27.043Z,53.80
2018-07-09T23:27:55.823Z,53.90
2018-07-09T23:30:24.983Z,53.90
2018-07-09T23:32:54.503Z,53.90
2018-07-09T23:35:24.263Z,53.80
2018-07-09T23:37:54.023Z,54.00
2018-07-09T23:40:23.505Z,54.30
2018-07-09T23:42:53.262Z,54.50
2018-07-09T23:45:23.244Z,54.30
2018-07-09T23:47:52.283Z,54.40
2018-07-09T23:50:21.122Z,54.40
2018-07-09T23:52:50.023Z,54.50
2018-07-09T23:55:19.263Z,54.50
